Amana, Iowa
Current Conditions -  °F | °C
As of 1:52 AM on Saturday 25 Oct 2014 (Local Time) from KCID Reporting Station
Moderate Fog Moderate Fog  
Wind Chill: 54°   Ceiling: 100
Heat Index: 54°   Visibility: 0mi
Dew Point: 54°   Wind: 7mph
Humidity: 100%   Direction: 280°W
Pressure: 29.95"   Gusts: NA
Location:  41.8°N, 91.87°W
Report Text: KCID 250652Z AUTO 28006KT M1/4SM FG VV001 12/12 A2995 RMK AO2 SLP142 T01220122
Loading
Personal Weather Stations






























Interactive Weather Map
Tropical Storm Tracking
New forecast layout! Learn more

10-Day Weather Forecast

Advertisements
Track Severe Weather on mobile